sensor_id;sensor_type;location;lat;lon;timestamp;temperature;humidity
70214;DHT22;60138;55.808;37.078;2023-03-12T00:00:46;1.80;76.66
70214;DHT22;60138;55.808;37.078;2023-03-12T00:03:12;1.81;76.76
70214;DHT22;60138;55.808;37.078;2023-03-12T00:05:42;1.83;77.02
70214;DHT22;60138;55.808;37.078;2023-03-12T00:08:08;1.85;77.03
70214;DHT22;60138;55.808;37.078;2023-03-12T00:10:34;1.88;77.37
70214;DHT22;60138;55.808;37.078;2023-03-12T00:13:00;1.92;77.31
70214;DHT22;60138;55.808;37.078;2023-03-12T00:15:26;1.95;76.62
70214;DHT22;60138;55.808;37.078;2023-03-12T00:17:52;1.98;76.84
70214;DHT22;60138;55.808;37.078;2023-03-12T00:20:18;2.00;76.26
70214;DHT22;60138;55.808;37.078;2023-03-12T00:22:44;2.03;77.04
70214;DHT22;60138;55.808;37.078;2023-03-12T00:25:12;2.08;76.63
70214;DHT22;60138;55.808;37.078;2023-03-12T00:27:38;2.10;76.63
70214;DHT22;60138;55.808;37.078;2023-03-12T00:30:05;2.14;76.68
70214;DHT22;60138;55.808;37.078;2023-03-12T00:32:32;2.19;76.82
70214;DHT22;60138;55.808;37.078;2023-03-12T00:34:58;2.22;76.64
70214;DHT22;60138;55.808;37.078;2023-03-12T00:37:23;2.25;77.15
70214;DHT22;60138;55.808;37.078;2023-03-12T00:39:49;2.29;76.36
70214;DHT22;60138;55.808;37.078;2023-03-12T00:42:15;2.31;76.26
70214;DHT22;60138;55.808;37.078;2023-03-12T00:44:41;2.32;76.07
70214;DHT22;60138;55.808;37.078;2023-03-12T00:47:07;2.37;76.46
70214;DHT22;60138;55.808;37.078;2023-03-12T00:49:32;2.39;75.73
70214;DHT22;60138;55.808;37.078;2023-03-12T00:51:58;2.42;76.15
70214;DHT22;60138;55.808;37.078;2023-03-12T00:54:24;2.44;76.08
70214;DHT22;60138;55.808;37.078;2023-03-12T00:56:49;2.47;76.14
70214;DHT22;60138;55.808;37.078;2023-03-12T00:59:15;2.49;76.24
70214;DHT22;60138;55.808;37.078;2023-03-12T01:01:42;2.50;76.27
70214;DHT22;60138;55.808;37.078;2023-03-12T01:04:08;2.52;76.79
70214;DHT22;60138;55.808;37.078;2023-03-12T01:06:34;2.55;76.61
70214;DHT22;60138;55.808;37.078;2023-03-12T01:09:04;2.55;76.83
70214;DHT22;60138;55.808;37.078;2023-03-12T01:11:30;2.58;76.96
70214;DHT22;60138;55.808;37.078;2023-03-12T01:13:57;2.60;77.00
70214;DHT22;60138;55.808;37.078;2023-03-12T01:16:23;2.62;76.90
70214;DHT22;60138;55.808;37.078;2023-03-12T01:18:49;2.65;77.73
70214;DHT22;60138;55.808;37.078;2023-03-12T01:21:14;2.67;76.50
70214;DHT22;60138;55.808;37.078;2023-03-12T01:23:40;2.70;77.14
70214;DHT22;60138;55.808;37.078;2023-03-12T01:26:06;2.71;77.20
70214;DHT22;60138;55.808;37.078;2023-03-12T01:28:31;2.71;77.27
70214;DHT22;60138;55.808;37.078;2023-03-12T01:30:57;2.73;77.53
70214;DHT22;60138;55.808;37.078;2023-03-12T01:33:23;2.73;77.98
70214;DHT22;60138;55.808;37.078;2023-03-12T01:35:48;2.73;77.62
70214;DHT22;60138;55.808;37.078;2023-03-12T01:38:14;2.74;78.13
70214;DHT22;60138;55.808;37.078;2023-03-12T01:40:41;2.79;77.62
70214;DHT22;60138;55.808;37.078;2023-03-12T01:43:35;2.81;77.65
70214;DHT22;60138;55.808;37.078;2023-03-12T01:46:24;2.83;77.92
70214;DHT22;60138;55.808;37.078;2023-03-12T01:49:03;2.86;77.96
70214;DHT22;60138;55.808;37.078;2023-03-12T01:54:16;2.89;77.71
70214;DHT22;60138;55.808;37.078;2023-03-12T01:56:43;2.93;77.72
70214;DHT22;60138;55.808;37.078;2023-03-12T01:59:14;2.93;77.70
70214;DHT22;60138;55.808;37.078;2023-03-12T02:01:41;2.95;78.19
70214;DHT22;60138;55.808;37.078;2023-03-12T02:04:08;2.97;78.06
70214;DHT22;60138;55.808;37.078;2023-03-12T02:07:08;3.01;78.00
70214;DHT22;60138;55.808;37.078;2023-03-12T02:09:37;3.04;77.90
70214;DHT22;60138;55.808;37.078;2023-03-12T02:12:04;3.05;77.86
70214;DHT22;60138;55.808;37.078;2023-03-12T02:14:30;3.08;77.51
70214;DHT22;60138;55.808;37.078;2023-03-12T02:16:56;3.11;77.88
70214;DHT22;60138;55.808;37.078;2023-03-12T02:19:49;3.14;77.72
70214;DHT22;60138;55.808;37.078;2023-03-12T02:22:17;3.16;77.66
70214;DHT22;60138;55.808;37.078;2023-03-12T02:24:48;3.18;77.82
70214;DHT22;60138;55.808;37.078;2023-03-12T02:27:16;3.19;77.89
70214;DHT22;60138;55.808;37.078;2023-03-12T02:29:43;3.23;77.60
70214;DHT22;60138;55.808;37.078;2023-03-12T02:32:14;3.27;77.24
70214;DHT22;60138;55.808;37.078;2023-03-12T02:34:41;3.30;77.78
70214;DHT22;60138;55.808;37.078;2023-03-12T02:37:09;3.31;77.63
70214;DHT22;60138;55.808;37.078;2023-03-12T02:39:35;3.35;77.89
70214;DHT22;60138;55.808;37.078;2023-03-12T02:42:01;3.36;78.21
70214;DHT22;60138;55.808;37.078;2023-03-12T02:44:30;3.40;77.88
70214;DHT22;60138;55.808;37.078;2023-03-12T02:46:59;3.43;77.69
70214;DHT22;60138;55.808;37.078;2023-03-12T02:49:30;3.45;78.27
70214;DHT22;60138;55.808;37.078;2023-03-12T02:51:58;3.47;78.19
70214;DHT22;60138;55.808;37.078;2023-03-12T02:54:29;3.49;78.00
70214;DHT22;60138;55.808;37.078;2023-03-12T02:56:55;3.53;78.13
70214;DHT22;60138;55.808;37.078;2023-03-12T02:59:22;3.56;77.94
70214;DHT22;60138;55.808;37.078;2023-03-12T03:01:57;3.59;77.82
70214;DHT22;60138;55.808;37.078;2023-03-12T03:04:23;3.62;78.05
70214;DHT22;60138;55.808;37.078;2023-03-12T03:06:49;3.64;77.63
70214;DHT22;60138;55.808;37.078;2023-03-12T03:09:15;3.68;77.79
70214;DHT22;60138;55.808;37.078;2023-03-12T03:11:41;3.70;78.30
70214;DHT22;60138;55.808;37.078;2023-03-12T03:14:08;3.72;78.15
70214;DHT22;60138;55.808;37.078;2023-03-12T03:16:34;3.74;77.98
70214;DHT22;60138;55.808;37.078;2023-03-12T03:18:59;3.77;78.01
70214;DHT22;60138;55.808;37.078;2023-03-12T03:21:25;3.82;77.74
70214;DHT22;60138;55.808;37.078;2023-03-12T03:23:51;3.83;77.77
70214;DHT22;60138;55.808;37.078;2023-03-12T03:26:22;3.86;77.72
70214;DHT22;60138;55.808;37.078;2023-03-12T03:28:48;3.87;78.21
70214;DHT22;60138;55.808;37.078;2023-03-12T03:31:14;3.90;78.30
70214;DHT22;60138;55.808;37.078;2023-03-12T03:33:41;3.92;78.18
70214;DHT22;60138;55.808;37.078;2023-03-12T03:36:08;3.93;78.20
70214;DHT22;60138;55.808;37.078;2023-03-12T03:38:38;3.97;78.14
70214;DHT22;60138;55.808;37.078;2023-03-12T03:41:05;3.99;78.06
70214;DHT22;60138;55.808;37.078;2023-03-12T03:43:33;4.02;77.89
70214;DHT22;60138;55.808;37.078;2023-03-12T03:46:02;4.03;78.11
70214;DHT22;60138;55.808;37.078;2023-03-12T03:48:31;4.05;78.21
70214;DHT22;60138;55.808;37.078;2023-03-12T03:51:00;4.07;77.72
70214;DHT22;60138;55.808;37.078;2023-03-12T03:53:29;4.09;78.30
70214;DHT22;60138;55.808;37.078;2023-03-12T03:55:56;4.10;78.37
70214;DHT22;60138;55.808;37.078;2023-03-12T03:58:22;4.14;78.47
70214;DHT22;60138;55.808;37.078;2023-03-12T04:00:48;4.14;78.43
70214;DHT22;60138;55.808;37.078;2023-03-12T04:03:14;4.15;78.18
70214;DHT22;60138;55.808;37.078;2023-03-12T04:05:40;4.18;78.34
70214;DHT22;60138;55.808;37.078;2023-03-12T04:08:06;4.18;78.79
70214;DHT22;60138;55.808;37.078;2023-03-12T04:10:32;4.21;78.66
70214;DHT22;60138;55.808;37.078;2023-03-12T04:12:58;4.23;78.31
70214;DHT22;60138;55.808;37.078;2023-03-12T04:15:24;4.24;78.82
70214;DHT22;60138;55.808;37.078;2023-03-12T04:17:50;4.26;78.59
70214;DHT22;60138;55.808;37.078;2023-03-12T04:20:16;4.27;78.27
70214;DHT22;60138;55.808;37.078;2023-03-12T04:22:42;4.28;78.31
70214;DHT22;60138;55.808;37.078;2023-03-12T04:25:09;4.29;78.68
70214;DHT22;60138;55.808;37.078;2023-03-12T04:27:35;4.32;78.51
70214;DHT22;60138;55.808;37.078;2023-03-12T04:30:00;4.32;78.34
70214;DHT22;60138;55.808;37.078;2023-03-12T04:32:26;4.34;78.26
70214;DHT22;60138;55.808;37.078;2023-03-12T04:34:52;4.36;78.01
70214;DHT22;60138;55.808;37.078;2023-03-12T04:37:19;4.37;78.31
70214;DHT22;60138;55.808;37.078;2023-03-12T04:39:45;4.38;78.24
70214;DHT22;60138;55.808;37.078;2023-03-12T04:42:12;4.39;78.39
70214;DHT22;60138;55.808;37.078;2023-03-12T04:44:39;4.39;78.27
70214;DHT22;60138;55.808;37.078;2023-03-12T04:47:06;4.43;78.02
70214;DHT22;60138;55.808;37.078;2023-03-12T04:49:32;4.44;78.54
70214;DHT22;60138;55.808;37.078;2023-03-12T04:51:57;4.47;78.38
70214;DHT22;60138;55.808;37.078;2023-03-12T04:54:23;4.49;78.27
70214;DHT22;60138;55.808;37.078;2023-03-12T04:56:49;4.51;78.55
70214;DHT22;60138;55.808;37.078;2023-03-12T04:59:16;4.54;78.56
70214;DHT22;60138;55.808;37.078;2023-03-12T05:01:43;4.59;78.18
70214;DHT22;60138;55.808;37.078;2023-03-12T05:04:16;4.60;78.41
70214;DHT22;60138;55.808;37.078;2023-03-12T05:06:42;4.65;78.69
70214;DHT22;60138;55.808;37.078;2023-03-12T05:09:08;4.68;78.28
70214;DHT22;60138;55.808;37.078;2023-03-12T05:11:34;4.72;78.05
70214;DHT22;60138;55.808;37.078;2023-03-12T05:13:59;4.78;78.12
70214;DHT22;60138;55.808;37.078;2023-03-12T05:16:25;4.82;78.21
70214;DHT22;60138;55.808;37.078;2023-03-12T05:18:51;4.88;78.14
70214;DHT22;60138;55.808;37.078;2023-03-12T05:21:19;4.88;78.01
70214;DHT22;60138;55.808;37.078;2023-03-12T05:23:47;4.87;78.20
70214;DHT22;60138;55.808;37.078;2023-03-12T05:26:23;4.86;78.30
70214;DHT22;60138;55.808;37.078;2023-03-12T05:28:52;4.86;78.42
70214;DHT22;60138;55.808;37.078;2023-03-12T05:31:21;4.87;78.30
70214;DHT22;60138;55.808;37.078;2023-03-12T05:33:47;4.91;78.38
70214;DHT22;60138;55.808;37.078;2023-03-12T05:36:14;4.92;78.40
70214;DHT22;60138;55.808;37.078;2023-03-12T05:38:43;4.95;78.48
70214;DHT22;60138;55.808;37.078;2023-03-12T05:41:21;4.94;78.26
70214;DHT22;60138;55.808;37.078;2023-03-12T05:43:47;4.94;77.87
70214;DHT22;60138;55.808;37.078;2023-03-12T05:46:14;4.97;78.14
70214;DHT22;60138;55.808;37.078;2023-03-12T05:48:40;5.02;78.08
70214;DHT22;60138;55.808;37.078;2023-03-12T05:51:06;5.06;79.12
70214;DHT22;60138;55.808;37.078;2023-03-12T05:53:32;5.08;78.64
70214;DHT22;60138;55.808;37.078;2023-03-12T05:56:03;5.11;78.57
70214;DHT22;60138;55.808;37.078;2023-03-12T05:58:30;5.13;78.53
70214;DHT22;60138;55.808;37.078;2023-03-12T06:00:57;5.19;78.21
70214;DHT22;60138;55.808;37.078;2023-03-12T06:03:22;5.21;78.44
70214;DHT22;60138;55.808;37.078;2023-03-12T06:05:48;5.24;78.98
70214;DHT22;60138;55.808;37.078;2023-03-12T06:08:14;5.27;78.47
70214;DHT22;60138;55.808;37.078;2023-03-12T06:10:40;5.33;78.33
70214;DHT22;60138;55.808;37.078;2023-03-12T06:13:06;5.37;78.43
70214;DHT22;60138;55.808;37.078;2023-03-12T06:15:32;5.40;78.50
70214;DHT22;60138;55.808;37.078;2023-03-12T06:17:58;5.43;78.45
70214;DHT22;60138;55.808;37.078;2023-03-12T06:20:23;5.48;78.26
70214;DHT22;60138;55.808;37.078;2023-03-12T06:22:49;5.55;78.19
70214;DHT22;60138;55.808;37.078;2023-03-12T06:25:15;5.60;78.18
70214;DHT22;60138;55.808;37.078;2023-03-12T06:27:40;5.65;78.35
70214;DHT22;60138;55.808;37.078;2023-03-12T06:30:07;5.66;78.27
70214;DHT22;60138;55.808;37.078;2023-03-12T06:32:33;5.68;78.12
70214;DHT22;60138;55.808;37.078;2023-03-12T06:34:59;5.71;77.95
70214;DHT22;60138;55.808;37.078;2023-03-12T06:37:25;5.70;77.76
70214;DHT22;60138;55.808;37.078;2023-03-12T06:39:50;5.70;77.95
70214;DHT22;60138;55.808;37.078;2023-03-12T06:42:16;5.76;77.86
70214;DHT22;60138;55.808;37.078;2023-03-12T06:44:42;5.75;77.80
70214;DHT22;60138;55.808;37.078;2023-03-12T06:47:08;5.72;77.84
70214;DHT22;60138;55.808;37.078;2023-03-12T06:49:33;5.74;77.98
70214;DHT22;60138;55.808;37.078;2023-03-12T06:51:59;5.78;77.82
70214;DHT22;60138;55.808;37.078;2023-03-12T06:54:24;5.79;78.14
70214;DHT22;60138;55.808;37.078;2023-03-12T06:56:50;5.82;77.95
70214;DHT22;60138;55.808;37.078;2023-03-12T06:59:16;5.86;77.82
70214;DHT22;60138;55.808;37.078;2023-03-12T07:01:41;5.90;77.89
70214;DHT22;60138;55.808;37.078;2023-03-12T07:04:07;5.94;77.76
70214;DHT22;60138;55.808;37.078;2023-03-12T07:06:33;5.97;77.72
70214;DHT22;60138;55.808;37.078;2023-03-12T07:08:58;5.98;77.66
70214;DHT22;60138;55.808;37.078;2023-03-12T07:11:24;5.97;77.66
70214;DHT22;60138;55.808;37.078;2023-03-12T07:13:49;5.95;77.79
70214;DHT22;60138;55.808;37.078;2023-03-12T07:16:15;5.97;77.61
70214;DHT22;60138;55.808;37.078;2023-03-12T07:18:41;5.97;77.56
70214;DHT22;60138;55.808;37.078;2023-03-12T07:21:06;5.96;77.50
70214;DHT22;60138;55.808;37.078;2023-03-12T07:23:32;6.00;77.59
70214;DHT22;60138;55.808;37.078;2023-03-12T07:25:58;6.09;77.55
70214;DHT22;60138;55.808;37.078;2023-03-12T07:28:23;6.20;77.46
70214;DHT22;60138;55.808;37.078;2023-03-12T07:30:49;6.25;77.37
70214;DHT22;60138;55.808;37.078;2023-03-12T07:33:19;6.28;77.44
70214;DHT22;60138;55.808;37.078;2023-03-12T07:35:46;6.35;77.35
70214;DHT22;60138;55.808;37.078;2023-03-12T07:38:12;6.38;77.17
70214;DHT22;60138;55.808;37.078;2023-03-12T07:40:38;6.37;77.13
70214;DHT22;60138;55.808;37.078;2023-03-12T07:43:04;6.45;77.18
70214;DHT22;60138;55.808;37.078;2023-03-12T07:45:31;6.52;76.92
70214;DHT22;60138;55.808;37.078;2023-03-12T07:47:56;6.58;76.99
70214;DHT22;60138;55.808;37.078;2023-03-12T07:50:22;6.59;77.02
70214;DHT22;60138;55.808;37.078;2023-03-12T07:52:48;6.58;76.83
70214;DHT22;60138;55.808;37.078;2023-03-12T07:55:14;6.59;76.84
70214;DHT22;60138;55.808;37.078;2023-03-12T07:57:39;6.59;76.79
70214;DHT22;60138;55.808;37.078;2023-03-12T08:00:05;6.58;76.75
70214;DHT22;60138;55.808;37.078;2023-03-12T08:02:37;6.57;76.76
70214;DHT22;60138;55.808;37.078;2023-03-12T08:05:04;6.58;76.70
70214;DHT22;60138;55.808;37.078;2023-03-12T08:07:31;6.61;76.71
70214;DHT22;60138;55.808;37.078;2023-03-12T08:10:01;6.70;76.63
70214;DHT22;60138;55.808;37.078;2023-03-12T08:12:28;6.75;76.75
70214;DHT22;60138;55.808;37.078;2023-03-12T08:14:54;6.79;76.57
70214;DHT22;60138;55.808;37.078;2023-03-12T08:17:20;6.76;76.68
70214;DHT22;60138;55.808;37.078;2023-03-12T08:19:46;6.75;76.53
70214;DHT22;60138;55.808;37.078;2023-03-12T08:22:11;6.76;76.63
70214;DHT22;60138;55.808;37.078;2023-03-12T08:24:37;6.74;76.38
70214;DHT22;60138;55.808;37.078;2023-03-12T08:27:03;6.75;76.50
70214;DHT22;60138;55.808;37.078;2023-03-12T08:29:28;6.80;76.59
70214;DHT22;60138;55.808;37.078;2023-03-12T08:31:54;6.86;76.57
70214;DHT22;60138;55.808;37.078;2023-03-12T08:34:20;6.94;76.49
70214;DHT22;60138;55.808;37.078;2023-03-12T08:36:46;7.00;76.54
70214;DHT22;60138;55.808;37.078;2023-03-12T08:39:11;7.11;76.41
70214;DHT22;60138;55.808;37.078;2023-03-12T08:41:37;7.15;76.32
70214;DHT22;60138;55.808;37.078;2023-03-12T08:44:03;7.16;76.19
70214;DHT22;60138;55.808;37.078;2023-03-12T08:46:28;7.20;76.29
70214;DHT22;60138;55.808;37.078;2023-03-12T08:48:54;7.34;76.18
70214;DHT22;60138;55.808;37.078;2023-03-12T08:51:20;7.43;76.17
70214;DHT22;60138;55.808;37.078;2023-03-12T08:53:45;7.45;75.90
70214;DHT22;60138;55.808;37.078;2023-03-12T08:56:11;7.44;75.90
70214;DHT22;60138;55.808;37.078;2023-03-12T08:58:37;7.45;75.99
70214;DHT22;60138;55.808;37.078;2023-03-12T09:01:08;7.49;75.86
70214;DHT22;60138;55.808;37.078;2023-03-12T09:03:33;7.49;75.76
70214;DHT22;60138;55.808;37.078;2023-03-12T09:06:07;7.52;75.76
70214;DHT22;60138;55.808;37.078;2023-03-12T09:08:33;7.54;75.56
70214;DHT22;60138;55.808;37.078;2023-03-12T09:10:59;7.53;75.69
70214;DHT22;60138;55.808;37.078;2023-03-12T09:13:25;7.58;75.67
70214;DHT22;60138;55.808;37.078;2023-03-12T09:15:51;7.65;75.66
70214;DHT22;60138;55.808;37.078;2023-03-12T09:18:16;7.73;75.56
70214;DHT22;60138;55.808;37.078;2023-03-12T09:20:42;7.78;75.29
70214;DHT22;60138;55.808;37.078;2023-03-12T09:23:08;7.78;75.23
70214;DHT22;60138;55.808;37.078;2023-03-12T09:25:33;7.82;75.25
70214;DHT22;60138;55.808;37.078;2023-03-12T09:28:00;7.90;75.23
70214;DHT22;60138;55.808;37.078;2023-03-12T09:30:25;8.02;75.28
70214;DHT22;60138;55.808;37.078;2023-03-12T09:32:52;8.05;75.05
70214;DHT22;60138;55.808;37.078;2023-03-12T09:35:17;8.09;74.99
70214;DHT22;60138;55.808;37.078;2023-03-12T09:37:47;8.15;75.00
70214;DHT22;60138;55.808;37.078;2023-03-12T09:40:21;8.22;74.88
70214;DHT22;60138;55.808;37.078;2023-03-12T09:43:03;8.24;74.70
70214;DHT22;60138;55.808;37.078;2023-03-12T09:45:40;8.19;74.59
70214;DHT22;60138;55.808;37.078;2023-03-12T09:48:33;8.18;74.52
70214;DHT22;60138;55.808;37.078;2023-03-12T09:51:00;8.13;74.41
70214;DHT22;60138;55.808;37.078;2023-03-12T09:55:57;8.17;74.41
70214;DHT22;60138;55.808;37.078;2023-03-12T09:58:34;8.24;74.52
70214;DHT22;60138;55.808;37.078;2023-03-12T10:01:03;8.39;74.46
70214;DHT22;60138;55.808;37.078;2023-03-12T10:06:20;8.61;74.00
70214;DHT22;60138;55.808;37.078;2023-03-12T10:23:37;8.17;73.44
70214;DHT22;60138;55.808;37.078;2023-03-12T10:28:43;7.65;73.89
70214;DHT22;60138;55.808;37.078;2023-03-12T10:31:33;7.02;74.70
70214;DHT22;60138;55.808;37.078;2023-03-12T10:34:02;6.20;75.98
70214;DHT22;60138;55.808;37.078;2023-03-12T10:38:57;5.15;78.19
70214;DHT22;60138;55.808;37.078;2023-03-12T10:41:28;4.75;76.70
70214;DHT22;60138;55.808;37.078;2023-03-12T10:43:57;4.36;78.67
70214;DHT22;60138;55.808;37.078;2023-03-12T10:49:37;4.03;79.30
70214;DHT22;60138;55.808;37.078;2023-03-12T10:52:15;3.94;79.78
70214;DHT22;60138;55.808;37.078;2023-03-12T10:54:44;3.70;79.93
70214;DHT22;60138;55.808;37.078;2023-03-12T10:57:11;3.45;79.82
70214;DHT22;60138;55.808;37.078;2023-03-12T10:59:39;3.35;80.59
70214;DHT22;60138;55.808;37.078;2023-03-12T11:04:51;3.16;80.43
70214;DHT22;60138;55.808;37.078;2023-03-12T11:07:30;2.97;80.70
70214;DHT22;60138;55.808;37.078;2023-03-12T11:12:32;2.76;81.36
70214;DHT22;60138;55.808;37.078;2023-03-12T11:14:58;2.61;80.94
70214;DHT22;60138;55.808;37.078;2023-03-12T11:17:26;2.51;81.53
70214;DHT22;60138;55.808;37.078;2023-03-12T11:19:52;2.47;81.68
70214;DHT22;60138;55.808;37.078;2023-03-12T11:22:32;2.50;81.12
70214;DHT22;60138;55.808;37.078;2023-03-12T11:25:04;2.47;81.49
70214;DHT22;60138;55.808;37.078;2023-03-12T11:27:41;2.36;80.79
70214;DHT22;60138;55.808;37.078;2023-03-12T11:30:14;1.97;81.28
70214;DHT22;60138;55.808;37.078;2023-03-12T11:32:44;1.75;82.48
70214;DHT22;60138;55.808;37.078;2023-03-12T11:35:17;1.62;83.49
70214;DHT22;60138;55.808;37.078;2023-03-12T11:48:38;1.76;83.68
70214;DHT22;60138;55.808;37.078;2023-03-12T11:51:14;1.67;83.64
70214;DHT22;60138;55.808;37.078;2023-03-12T11:56:36;1.49;83.87
70214;DHT22;60138;55.808;37.078;2023-03-12T12:12:47;0.74;85.69
70214;DHT22;60138;55.808;37.078;2023-03-12T12:24:08;0.73;87.54
70214;DHT22;60138;55.808;37.078;2023-03-12T12:31:57;0.73;86.54
70214;DHT22;60138;55.808;37.078;2023-03-12T12:37:16;0.67;86.84
70214;DHT22;60138;55.808;37.078;2023-03-12T12:42:51;0.71;86.12
70214;DHT22;60138;55.808;37.078;2023-03-12T12:45:19;0.60;87.54
70214;DHT22;60138;55.808;37.078;2023-03-12T12:47:50;0.59;87.77
70214;DHT22;60138;55.808;37.078;2023-03-12T12:50:21;0.51;88.01
70214;DHT22;60138;55.808;37.078;2023-03-12T12:52:58;0.55;88.24
70214;DHT22;60138;55.808;37.078;2023-03-12T12:55:32;0.54;88.44
70214;DHT22;60138;55.808;37.078;2023-03-12T12:58:06;0.51;88.38
70214;DHT22;60138;55.808;37.078;2023-03-12T13:00:45;0.49;88.38
70214;DHT22;60138;55.808;37.078;2023-03-12T13:03:17;0.38;88.32
70214;DHT22;60138;55.808;37.078;2023-03-12T13:06:03;0.22;88.35
70214;DHT22;60138;55.808;37.078;2023-03-12T13:11:26;0.15;88.24
70214;DHT22;60138;55.808;37.078;2023-03-12T13:16:38;0.16;88.07
70214;DHT22;60138;55.808;37.078;2023-03-12T13:27:16;-0.03;87.79
70214;DHT22;60138;55.808;37.078;2023-03-12T13:29:44;-0.06;87.68
70214;DHT22;60138;55.808;37.078;2023-03-12T13:32:36;-0.16;87.70
70214;DHT22;60138;55.808;37.078;2023-03-12T13:35:27;-0.30;88.37
70214;DHT22;60138;55.808;37.078;2023-03-12T13:40:35;-0.34;87.83
70214;DHT22;60138;55.808;37.078;2023-03-12T13:43:09;-0.32;87.90
70214;DHT22;60138;55.808;37.078;2023-03-12T13:46:20;-0.35;87.51
70214;DHT22;60138;55.808;37.078;2023-03-12T13:48:47;-0.29;87.60
70214;DHT22;60138;55.808;37.078;2023-03-12T13:53:52;-0.43;87.37
70214;DHT22;60138;55.808;37.078;2023-03-12T13:56:25;-0.55;86.93
70214;DHT22;60138;55.808;37.078;2023-03-12T13:59:01;-0.65;86.83
70214;DHT22;60138;55.808;37.078;2023-03-12T14:01:40;-0.67;87.07
70214;DHT22;60138;55.808;37.078;2023-03-12T14:04:12;-0.70;86.94
70214;DHT22;60138;55.808;37.078;2023-03-12T14:07:02;-0.73;86.92
70214;DHT22;60138;55.808;37.078;2023-03-12T14:12:51;-0.90;86.64
70214;DHT22;60138;55.808;37.078;2023-03-12T14:18:03;-1.28;85.98
70214;DHT22;60138;55.808;37.078;2023-03-12T14:20:36;-1.47;85.84
70214;DHT22;60138;55.808;37.078;2023-03-12T14:23:06;-1.69;85.63
70214;DHT22;60138;55.808;37.078;2023-03-12T14:25:36;-1.77;85.55
70214;DHT22;60138;55.808;37.078;2023-03-12T14:28:10;-1.76;85.67
70214;DHT22;60138;55.808;37.078;2023-03-12T14:33:17;-2.04;85.55
70214;DHT22;60138;55.808;37.078;2023-03-12T14:35:47;-2.02;85.56
70214;DHT22;60138;55.808;37.078;2023-03-12T14:38:24;-2.14;85.53
70214;DHT22;60138;55.808;37.078;2023-03-12T14:43:27;-2.21;85.48
70214;DHT22;60138;55.808;37.078;2023-03-12T14:45:55;-2.28;85.39
70214;DHT22;60138;55.808;37.078;2023-03-12T14:48:27;-2.29;85.42
70214;DHT22;60138;55.808;37.078;2023-03-12T14:50:54;-2.34;85.34
70214;DHT22;60138;55.808;37.078;2023-03-12T14:53:36;-2.43;85.29
70214;DHT22;60138;55.808;37.078;2023-03-12T14:56:25;-2.38;85.27
70214;DHT22;60138;55.808;37.078;2023-03-12T14:58:51;-2.52;85.19
70214;DHT22;60138;55.808;37.078;2023-03-12T15:01:20;-2.47;85.13
70214;DHT22;60138;55.808;37.078;2023-03-12T15:03:54;-2.47;85.20
70214;DHT22;60138;55.808;37.078;2023-03-12T15:06:58;-2.45;85.14
70214;DHT22;60138;55.808;37.078;2023-03-12T15:09:24;-2.48;85.19
70214;DHT22;60138;55.808;37.078;2023-03-12T15:11:59;-2.49;85.22
70214;DHT22;60138;55.808;37.078;2023-03-12T15:14:27;-2.54;85.26
70214;DHT22;60138;55.808;37.078;2023-03-12T15:16:55;-2.51;85.19
70214;DHT22;60138;55.808;37.078;2023-03-12T15:19:32;-2.49;85.11
70214;DHT22;60138;55.808;37.078;2023-03-12T15:21:58;-2.44;85.16
70214;DHT22;60138;55.808;37.078;2023-03-12T15:24:24;-2.43;85.21
70214;DHT22;60138;55.808;37.078;2023-03-12T15:26:50;-2.36;85.25
70214;DHT22;60138;55.808;37.078;2023-03-12T15:31:49;-2.43;85.12
70214;DHT22;60138;55.808;37.078;2023-03-12T15:34:33;-2.47;85.09
70214;DHT22;60138;55.808;37.078;2023-03-12T15:37:00;-2.54;85.01
70214;DHT22;60138;55.808;37.078;2023-03-12T15:39:32;-2.56;84.98
70214;DHT22;60138;55.808;37.078;2023-03-12T15:42:09;-2.52;85.00
70214;DHT22;60138;55.808;37.078;2023-03-12T15:44:45;-2.51;85.00
70214;DHT22;60138;55.808;37.078;2023-03-12T15:47:14;-2.52;85.00
70214;DHT22;60138;55.808;37.078;2023-03-12T15:49:40;-2.50;84.96
70214;DHT22;60138;55.808;37.078;2023-03-12T15:55:05;-2.52;84.93
70214;DHT22;60138;55.808;37.078;2023-03-12T15:57:32;-2.53;84.96
70214;DHT22;60138;55.808;37.078;2023-03-12T16:05:04;-2.62;84.92
70214;DHT22;60138;55.808;37.078;2023-03-12T16:07:30;-2.57;84.87
70214;DHT22;60138;55.808;37.078;2023-03-12T16:09:56;-2.54;84.91
70214;DHT22;60138;55.808;37.078;2023-03-12T16:12:22;-2.60;84.79
70214;DHT22;60138;55.808;37.078;2023-03-12T16:14:48;-2.57;84.89
70214;DHT22;60138;55.808;37.078;2023-03-12T16:17:21;-2.56;84.87
70214;DHT22;60138;55.808;37.078;2023-03-12T16:19:47;-2.58;84.80
70214;DHT22;60138;55.808;37.078;2023-03-12T16:22:12;-2.56;84.78
70214;DHT22;60138;55.808;37.078;2023-03-12T16:24:38;-2.59;84.78
70214;DHT22;60138;55.808;37.078;2023-03-12T16:27:04;-2.54;84.79
70214;DHT22;60138;55.808;37.078;2023-03-12T16:29:35;-2.56;84.82
70214;DHT22;60138;55.808;37.078;2023-03-12T16:32:01;-2.51;84.83
70214;DHT22;60138;55.808;37.078;2023-03-12T16:34:33;-2.51;84.82
70214;DHT22;60138;55.808;37.078;2023-03-12T16:36:58;-2.51;84.75
70214;DHT22;60138;55.808;37.078;2023-03-12T16:39:24;-2.52;84.71
70214;DHT22;60138;55.808;37.078;2023-03-12T16:41:50;-2.54;84.68
70214;DHT22;60138;55.808;37.078;2023-03-12T16:44:19;-2.54;84.65
70214;DHT22;60138;55.808;37.078;2023-03-12T16:46:46;-2.54;84.67
70214;DHT22;60138;55.808;37.078;2023-03-12T16:49:14;-2.57;84.58
70214;DHT22;60138;55.808;37.078;2023-03-12T16:51:40;-2.64;84.46
70214;DHT22;60138;55.808;37.078;2023-03-12T16:54:06;-2.64;84.45
70214;DHT22;60138;55.808;37.078;2023-03-12T16:56:31;-2.68;84.40
70214;DHT22;60138;55.808;37.078;2023-03-12T16:59:02;-2.68;84.40
70214;DHT22;60138;55.808;37.078;2023-03-12T17:01:29;-2.69;84.40
70214;DHT22;60138;55.808;37.078;2023-03-12T17:03:55;-2.74;84.34
70214;DHT22;60138;55.808;37.078;2023-03-12T17:06:23;-2.72;84.38
70214;DHT22;60138;55.808;37.078;2023-03-12T17:08:50;-2.71;84.35
70214;DHT22;60138;55.808;37.078;2023-03-12T17:11:20;-2.71;84.39
70214;DHT22;60138;55.808;37.078;2023-03-12T17:13:49;-2.69;84.35
70214;DHT22;60138;55.808;37.078;2023-03-12T17:16:16;-2.67;84.41
70214;DHT22;60138;55.808;37.078;2023-03-12T17:18:42;-2.64;84.38
70214;DHT22;60138;55.808;37.078;2023-03-12T17:21:12;-2.64;84.44
70214;DHT22;60138;55.808;37.078;2023-03-12T17:23:39;-2.61;84.45
70214;DHT22;60138;55.808;37.078;2023-03-12T17:26:05;-2.59;84.45
70214;DHT22;60138;55.808;37.078;2023-03-12T17:28:31;-2.58;84.45
70214;DHT22;60138;55.808;37.078;2023-03-12T17:30:58;-2.56;84.40
70214;DHT22;60138;55.808;37.078;2023-03-12T17:33:24;-2.52;84.45
70214;DHT22;60138;55.808;37.078;2023-03-12T17:35:57;-2.51;84.48
70214;DHT22;60138;55.808;37.078;2023-03-12T17:38:23;-2.50;84.44
70214;DHT22;60138;55.808;37.078;2023-03-12T17:40:49;-2.51;84.52